Helliar — 2EPP5 — position and weather

sailwx.info

Track history (hours):
 
Tides and Currents Weather Stations Pressure Air Temp Water Temp Dewpoint Dewpoint Depression Visibility Wind Speed Wind Dir Waves Ship Positions

Helliar

Last reported at 2017-Dec-16 20:50 UTC. Time now 2017-Dec-18 13:03 UTC.
Position N 57°52' W 001°31'.

Length 122 m; draft 5.5 m.

Type: Cargo ship. MMSI: 235087119.

Date/timePositionNaut miles runAvg speedWind from/ knotsBaromVisibWave heightAir tempDewpointWater temp
2017-Dec-16 20:50N 57°52' W 001°31'412.5
2017-Dec-16 20:30N 57°48' W 001°32'612.6
2017-Dec-16 20:00N 57°42' W 001°32'612.9
2017-Dec-16 19:30N 57°35' W 001°32'713.1
2017-Dec-16 19:00N 57°29' W 001°34'713.7
2017-Dec-16 18:30N 57°23' W 001°41'714.1
2017-Dec-16 18:00N 57°17' W 001°48'715.0
2017-Dec-16 17:30N 57°12' W 001°58'510.6
2017-Dec-16 17:00N 57°09' W 002°05'0 0.1
2017-Dec-16 16:30N 57°09' W 002°05'0 0.0
2017-Dec-16 16:00N 57°09' W 002°05'0 0.0
2017-Dec-16 15:30N 57°09' W 002°05'0 0.0
2017-Dec-16 15:00N 57°09' W 002°05'0 0.0
2017-Dec-16 14:30N 57°09' W 002°05'0 0.0
2017-Dec-16 14:00N 57°09' W 002°05'0 0.0
2017-Dec-16 13:30N 57°09' W 002°05'0 0.0
2017-Dec-16 13:00N 57°09' W 002°05'0 0.0
2017-Dec-16 12:30N 57°09' W 002°05'0 0.0
2017-Dec-16 12:00N 57°09' W 002°05'0 0.0
2017-Dec-16 11:30N 57°09' W 002°05'0 0.0
2017-Dec-16 11:00N 57°09' W 002°05'0 0.0
2017-Dec-16 10:30N 57°09' W 002°05'0 0.0
2017-Dec-16 10:00N 57°09' W 002°05'0 0.0
2017-Dec-16 09:30N 57°09' W 002°05'0 0.0
2017-Dec-16 09:00N 57°09' W 002°05'0 0.0
2017-Dec-16 08:30N 57°09' W 002°05'0 0.0
2017-Dec-16 08:00N 57°09' W 002°05'1 1.3
2017-Dec-16 07:30N 57°09' W 002°04'612.5
2017-Dec-16 07:01N 57°13' W 001°56'713.3
2017-Dec-16 06:31N 57°18' W 001°49'612.9
2017-Dec-16 06:00N 57°24' W 001°43'713.0
2017-Dec-16 05:30N 57°30' W 001°39'612.8
2017-Dec-16 05:00N 57°36' W 001°37'613.0
2017-Dec-16 04:30N 57°43' W 001°36'713.1
2017-Dec-16 04:00N 57°49' W 001°34'913.7
2017-Dec-16 03:20N 57°59' W 001°32'47 1.4
2017-Dec-14 18:31N 57°14' W 001°57'713.1
2017-Dec-14 18:01N 57°09' W 002°05'0 0.7
2017-Dec-14 17:28N 57°09' W 002°05'0 0.0
2017-Dec-14 16:58N 57°09' W 002°05'0 0.0
2017-Dec-14 16:28N 57°09' W 002°05'0 0.0
2017-Dec-14 15:58N 57°09' W 002°05'0 0.0
2017-Dec-14 14:58N 57°09' W 002°05'0 0.0
2017-Dec-14 14:28N 57°09' W 002°05'0 0.0
2017-Dec-14 13:58N 57°09' W 002°05'0 0.0
2017-Dec-14 13:28N 57°09' W 002°05'0 0.0
2017-Dec-14 12:58N 57°09' W 002°05'0 0.0
2017-Dec-14 12:28N 57°09' W 002°05'0 0.0
2017-Dec-14 11:58N 57°09' W 002°05'0 0.0
2017-Dec-14 11:28N 57°09' W 002°05'0 0.0
2017-Dec-14 10:58N 57°09' W 002°05'0 0.0
2017-Dec-14 10:28N 57°09' W 002°05'0 0.0
2017-Dec-14 09:58N 57°09' W 002°05'0 0.0
2017-Dec-14 09:28N 57°09' W 002°05'0 0.0
2017-Dec-14 08:58N 57°09' W 002°05'0 0.0
2017-Dec-14 08:28N 57°09' W 002°05'0 0.0
2017-Dec-14 08:00N 57°09' W 002°05'1 2.6
2017-Dec-14 07:30N 57°09' W 002°03'510.6
2017-Dec-14 07:00N 57°13' W 001°56'713.6
2017-Dec-14 06:30N 57°19' W 001°50'713.4
2017-Dec-14 06:00N 57°24' W 001°43'613.0
2017-Dec-14 05:30N 57°30' W 001°38'713.2
2017-Dec-14 05:00N 57°37' W 001°37'713.5
2017-Dec-14 04:30N 57°43' W 001°36'714.1
2017-Dec-14 03:59N 57°51' W 001°34'3 0.1
2017-Dec-12 21:58N 57°47' W 001°34'715.2
2017-Dec-12 21:30N 57°40' W 001°36'714.7
2017-Dec-12 21:00N 57°33' W 001°38'714.4
2017-Dec-12 20:31N 57°26' W 001°43'1014.9
2017-Dec-12 19:50N 57°18' W 001°52'515.1
2017-Dec-12 19:30N 57°14' W 001°57'713.1
2017-Dec-12 19:00N 57°09' W 002°05'0 0.8
2017-Dec-12 18:29N 57°09' W 002°05'0 0.0
2017-Dec-12 17:59N 57°09' W 002°05'0 0.0
2017-Dec-12 17:29N 57°09' W 002°05'0 0.0
2017-Dec-12 16:59N 57°09' W 002°05'0 0.0
2017-Dec-12 16:29N 57°09' W 002°05'0 0.0
2017-Dec-12 15:59N 57°09' W 002°05'0 0.0
2017-Dec-12 15:29N 57°09' W 002°05'0 0.0
2017-Dec-12 14:59N 57°09' W 002°05'0 0.0
2017-Dec-12 14:29N 57°09' W 002°05'0 0.0
2017-Dec-12 13:59N 57°09' W 002°05'0 0.0
2017-Dec-12 13:29N 57°09' W 002°05'0 0.0
2017-Dec-12 12:59N 57°09' W 002°05'0 0.0
2017-Dec-12 12:29N 57°09' W 002°05'0 0.0
2017-Dec-12 11:59N 57°09' W 002°05'0 0.0
2017-Dec-12 11:29N 57°09' W 002°05'0 0.0
2017-Dec-12 10:59N 57°09' W 002°05'0 0.0
2017-Dec-12 10:29N 57°09' W 002°05'0 0.0
2017-Dec-12 09:59N 57°09' W 002°05'0 0.0
2017-Dec-12 09:29N 57°09' W 002°05'0 0.0
2017-Dec-12 08:59N 57°09' W 002°05'0 0.0
2017-Dec-12 08:29N 57°09' W 002°05'0 0.0
2017-Dec-12 07:59N 57°09' W 002°05'0 0.0
2017-Dec-12 07:29N 57°09' W 002°05'0 0.0
2017-Dec-12 06:59N 57°09' W 002°05'0 0.0
2017-Dec-12 06:29N 57°09' W 002°05'0 0.0
2017-Dec-12 05:59N 57°09' W 002°05'1 2.2
2017-Dec-12 05:31N 57°09' W 002°03'815.1
2017-Dec-12 05:00N 57°15' W 001°55'816.0
2017-Dec-12 04:30N 57°22' W 001°48'815.8
2017-Dec-12 04:00N 57°29' W 001°41'815.1
2017-Dec-12 03:31N 57°36' W 001°43'815.2
2017-Dec-12 03:00N 57°43' W 001°48'815.3
2017-Dec-12 02:30N 57°51' W 001°54'5015.6
2017-Dec-11 23:17N 58°38' W 002°25'1515.7
2017-Dec-11 22:19N 58°52' W 002°35'515.7
2017-Dec-11 22:00N 58°57' W 002°38'713.8
2017-Dec-11 21:30N 59°00' W 002°50'4 8.3
2017-Dec-11 20:58N 58°60' W 002°58'0 0.0
2017-Dec-11 20:28N 58°60' W 002°58'0 0.0
2017-Dec-11 19:58N 58°60' W 002°58'0 0.0
2017-Dec-11 19:28N 58°60' W 002°58'0 0.0
2017-Dec-11 18:58N 58°60' W 002°58'0 0.0
2017-Dec-11 18:28N 58°60' W 002°58'0 0.0
2017-Dec-11 17:58N 58°60' W 002°58'0 0.0
2017-Dec-11 17:28N 58°60' W 002°58'0 0.0
2017-Dec-11 16:58N 58°60' W 002°58'0 0.0
2017-Dec-11 16:28N 58°60' W 002°58'0 0.0
2017-Dec-11 15:58N 58°60' W 002°58'0 0.0
2017-Dec-11 15:28N 58°60' W 002°58'0 0.0
2017-Dec-11 14:58N 58°60' W 002°58'0 0.0
2017-Dec-11 14:28N 58°60' W 002°58'0 0.0
2017-Dec-11 13:58N 58°60' W 002°58'0 0.0
2017-Dec-11 13:28N 58°60' W 002°58'0 0.0
2017-Dec-11 12:58N 58°60' W 002°58'0 0.0
2017-Dec-11 12:28N 58°60' W 002°58'0 0.0
2017-Dec-11 11:58N 58°60' W 002°58'0 0.0
2017-Dec-11 11:28N 58°60' W 002°58'0 0.0
2017-Dec-11 10:58N 58°60' W 002°58'0 0.0
2017-Dec-11 10:28N 58°60' W 002°58'0 0.0
2017-Dec-11 09:58N 58°60' W 002°58'0 0.0
2017-Dec-11 09:28N 58°60' W 002°58'0 0.0
2017-Dec-11 08:58N 58°60' W 002°58'0 0.0
2017-Dec-11 08:28N 58°60' W 002°58'0 0.0
2017-Dec-11 07:58N 58°60' W 002°58'0 0.0
2017-Dec-11 07:28N 58°60' W 002°58'0 0.0
2017-Dec-11 06:58N 58°60' W 002°58'0 0.0
2017-Dec-11 06:28N 58°60' W 002°58'0 0.0
2017-Dec-11 05:58N 58°60' W 002°58'0 0.0
2017-Dec-11 05:28N 58°60' W 002°58'0 0.0
2017-Dec-11 04:58N 58°60' W 002°58'0 0.0
2017-Dec-11 04:28N 58°60' W 002°58'0 0.0
2017-Dec-11 03:58N 58°60' W 002°58'0 0.0
2017-Dec-11 03:28N 58°60' W 002°58'0 0.0
2017-Dec-11 02:58N 58°60' W 002°58'0 0.0
2017-Dec-11 02:28N 58°60' W 002°58'0 0.0
2017-Dec-11 01:58N 58°60' W 002°58'0 0.3
2017-Dec-11 01:31N 58°60' W 002°58'510.7
2017-Dec-11 01:00N 59°00' W 002°48'714.1
2017-Dec-11 00:30N 58°56' W 002°37'6615.3
2017-Dec-10 20:10N 57°53' W 001°54'514.7
2017-Dec-10 19:50N 57°49' W 001°51'514.4
2017-Dec-10 19:30N 57°44' W 001°49'714.4
2017-Dec-10 19:00N 57°37' W 001°45'714.0
2017-Dec-10 18:31N 57°31' W 001°42'713.6
2017-Dec-10 18:00N 57°24' W 001°45'714.5
2017-Dec-10 17:30N 57°18' W 001°52'715.0
2017-Dec-10 17:01N 57°11' W 001°59'4 8.7
2017-Dec-10 16:30N 57°09' W 002°05'0 0.0
2017-Dec-10 16:00N 57°09' W 002°05'0 0.0
2017-Dec-10 15:30N 57°09' W 002°05'0 0.0
2017-Dec-10 15:00N 57°09' W 002°05'0 0.0
2017-Dec-10 14:29N 57°09' W 002°05'0 0.0
2017-Dec-10 14:00N 57°09' W 002°05'0 0.0
2017-Dec-10 13:30N 57°09' W 002°05'0 0.0
2017-Dec-10 13:00N 57°09' W 002°05'0 0.0
2017-Dec-10 12:29N 57°09' W 002°05'0 0.0
2017-Dec-10 11:59N 57°09' W 002°05'0 0.0
2017-Dec-10 11:30N 57°09' W 002°05'0 0.0
2017-Dec-10 11:00N 57°09' W 002°05'0 0.0
2017-Dec-10 10:30N 57°09' W 002°05'0 0.0
2017-Dec-10 10:00N 57°09' W 002°05'0 0.0
2017-Dec-10 09:29N 57°09' W 002°05'0 0.0
2017-Dec-10 08:59N 57°09' W 002°05'0 0.0
2017-Dec-10 08:29N 57°09' W 002°05'0 0.0
2017-Dec-10 07:59N 57°09' W 002°05'1 1.8
2017-Dec-10 07:31N 57°09' W 002°04'612.4
2017-Dec-10 07:01N 57°13' W 001°55'612.9
2017-Dec-10 06:31N 57°18' W 001°49'612.9
2017-Dec-10 06:00N 57°24' W 001°43'612.9
2017-Dec-10 05:30N 57°30' W 001°38'713.3
2017-Dec-10 05:01N 57°37' W 001°36'612.6
2017-Dec-10 04:30N 57°43' W 001°35'712.6
2017-Dec-10 03:55N 57°50' W 001°34'  
Track history (hours):
 
Tides and Currents Weather Stations Pressure Air Temp Water Temp Dewpoint Dewpoint Depression Visibility Wind Speed Wind Dir Waves Ship Positions

Helliar

Last reported at 2017-Dec-16 20:50 UTC. Time now 2017-Dec-18 13:03 UTC.
Position N 57°52' W 001°31'.

Length 122 m; draft 5.5 m.

Type: Cargo ship. MMSI: 235087119.

Date/timePositionNaut miles runAvg speedWind from/ knotsBaromVisibWave heightAir tempDewpointWater temp
2017-Dec-16 20:50N 57°52' W 001°31'412.5
2017-Dec-16 20:30N 57°48' W 001°32'612.6
2017-Dec-16 20:00N 57°42' W 001°32'612.9
2017-Dec-16 19:30N 57°35' W 001°32'713.1
2017-Dec-16 19:00N 57°29' W 001°34'713.7
2017-Dec-16 18:30N 57°23' W 001°41'714.1
2017-Dec-16 18:00N 57°17' W 001°48'715.0
2017-Dec-16 17:30N 57°12' W 001°58'510.6
2017-Dec-16 17:00N 57°09' W 002°05'0 0.1
2017-Dec-16 16:30N 57°09' W 002°05'0 0.0
2017-Dec-16 16:00N 57°09' W 002°05'0 0.0
2017-Dec-16 15:30N 57°09' W 002°05'0 0.0
2017-Dec-16 15:00N 57°09' W 002°05'0 0.0
2017-Dec-16 14:30N 57°09' W 002°05'0 0.0
2017-Dec-16 14:00N 57°09' W 002°05'0 0.0
2017-Dec-16 13:30N 57°09' W 002°05'0 0.0
2017-Dec-16 13:00N 57°09' W 002°05'0 0.0
2017-Dec-16 12:30N 57°09' W 002°05'0 0.0
2017-Dec-16 12:00N 57°09' W 002°05'0 0.0
2017-Dec-16 11:30N 57°09' W 002°05'0 0.0
2017-Dec-16 11:00N 57°09' W 002°05'0 0.0
2017-Dec-16 10:30N 57°09' W 002°05'0 0.0
2017-Dec-16 10:00N 57°09' W 002°05'0 0.0
2017-Dec-16 09:30N 57°09' W 002°05'0 0.0
2017-Dec-16 09:00N 57°09' W 002°05'0 0.0
2017-Dec-16 08:30N 57°09' W 002°05'0 0.0
2017-Dec-16 08:00N 57°09' W 002°05'1 1.3
2017-Dec-16 07:30N 57°09' W 002°04'612.5
2017-Dec-16 07:01N 57°13' W 001°56'713.3
2017-Dec-16 06:31N 57°18' W 001°49'612.9
2017-Dec-16 06:00N 57°24' W 001°43'713.0
2017-Dec-16 05:30N 57°30' W 001°39'612.8
2017-Dec-16 05:00N 57°36' W 001°37'613.0
2017-Dec-16 04:30N 57°43' W 001°36'713.1
2017-Dec-16 04:00N 57°49' W 001°34'913.7
2017-Dec-16 03:20N 57°59' W 001°32'47 1.4
2017-Dec-14 18:31N 57°14' W 001°57'713.1
2017-Dec-14 18:01N 57°09' W 002°05'0 0.7
2017-Dec-14 17:28N 57°09' W 002°05'0 0.0
2017-Dec-14 16:58N 57°09' W 002°05'0 0.0
2017-Dec-14 16:28N 57°09' W 002°05'0 0.0
2017-Dec-14 15:58N 57°09' W 002°05'0 0.0
2017-Dec-14 14:58N 57°09' W 002°05'0 0.0
2017-Dec-14 14:28N 57°09' W 002°05'0 0.0
2017-Dec-14 13:58N 57°09' W 002°05'0 0.0
2017-Dec-14 13:28N 57°09' W 002°05'0 0.0
2017-Dec-14 12:58N 57°09' W 002°05'0 0.0
2017-Dec-14 12:28N 57°09' W 002°05'0 0.0
2017-Dec-14 11:58N 57°09' W 002°05'0 0.0
2017-Dec-14 11:28N 57°09' W 002°05'0 0.0
2017-Dec-14 10:58N 57°09' W 002°05'0 0.0
2017-Dec-14 10:28N 57°09' W 002°05'0 0.0
2017-Dec-14 09:58N 57°09' W 002°05'0 0.0
2017-Dec-14 09:28N 57°09' W 002°05'0 0.0
2017-Dec-14 08:58N 57°09' W 002°05'0 0.0
2017-Dec-14 08:28N 57°09' W 002°05'0 0.0
2017-Dec-14 08:00N 57°09' W 002°05'1 2.6
2017-Dec-14 07:30N 57°09' W 002°03'510.6
2017-Dec-14 07:00N 57°13' W 001°56'713.6
2017-Dec-14 06:30N 57°19' W 001°50'713.4
2017-Dec-14 06:00N 57°24' W 001°43'613.0
2017-Dec-14 05:30N 57°30' W 001°38'713.2
2017-Dec-14 05:00N 57°37' W 001°37'713.5
2017-Dec-14 04:30N 57°43' W 001°36'714.1
2017-Dec-14 03:59N 57°51' W 001°34'3 0.1
2017-Dec-12 21:58N 57°47' W 001°34'715.2
2017-Dec-12 21:30N 57°40' W 001°36'714.7
2017-Dec-12 21:00N 57°33' W 001°38'714.4
2017-Dec-12 20:31N 57°26' W 001°43'1014.9
2017-Dec-12 19:50N 57°18' W 001°52'515.1
2017-Dec-12 19:30N 57°14' W 001°57'713.1
2017-Dec-12 19:00N 57°09' W 002°05'0 0.8
2017-Dec-12 18:29N 57°09' W 002°05'0 0.0
2017-Dec-12 17:59N 57°09' W 002°05'0 0.0
2017-Dec-12 17:29N 57°09' W 002°05'0 0.0
2017-Dec-12 16:59N 57°09' W 002°05'0 0.0
2017-Dec-12 16:29N 57°09' W 002°05'0 0.0
2017-Dec-12 15:59N 57°09' W 002°05'0 0.0
2017-Dec-12 15:29N 57°09' W 002°05'0 0.0
2017-Dec-12 14:59N 57°09' W 002°05'0 0.0
2017-Dec-12 14:29N 57°09' W 002°05'0 0.0
2017-Dec-12 13:59N 57°09' W 002°05'0 0.0
2017-Dec-12 13:29N 57°09' W 002°05'0 0.0
2017-Dec-12 12:59N 57°09' W 002°05'0 0.0
2017-Dec-12 12:29N 57°09' W 002°05'0 0.0
2017-Dec-12 11:59N 57°09' W 002°05'0 0.0
2017-Dec-12 11:29N 57°09' W 002°05'0 0.0
2017-Dec-12 10:59N 57°09' W 002°05'0 0.0
2017-Dec-12 10:29N 57°09' W 002°05'0 0.0
2017-Dec-12 09:59N 57°09' W 002°05'0 0.0
2017-Dec-12 09:29N 57°09' W 002°05'0 0.0
2017-Dec-12 08:59N 57°09' W 002°05'0 0.0
2017-Dec-12 08:29N 57°09' W 002°05'0 0.0
2017-Dec-12 07:59N 57°09' W 002°05'0 0.0
2017-Dec-12 07:29N 57°09' W 002°05'0 0.0
2017-Dec-12 06:59N 57°09' W 002°05'0 0.0
2017-Dec-12 06:29N 57°09' W 002°05'0 0.0
2017-Dec-12 05:59N 57°09' W 002°05'1 2.2
2017-Dec-12 05:31N 57°09' W 002°03'815.1
2017-Dec-12 05:00N 57°15' W 001°55'816.0
2017-Dec-12 04:30N 57°22' W 001°48'815.8
2017-Dec-12 04:00N 57°29' W 001°41'815.1
2017-Dec-12 03:31N 57°36' W 001°43'815.2
2017-Dec-12 03:00N 57°43' W 001°48'815.3
2017-Dec-12 02:30N 57°51' W 001°54'5015.6
2017-Dec-11 23:17N 58°38' W 002°25'1515.7
2017-Dec-11 22:19N 58°52' W 002°35'515.7
2017-Dec-11 22:00N 58°57' W 002°38'713.8
2017-Dec-11 21:30N 59°00' W 002°50'4 8.3
2017-Dec-11 20:58N 58°60' W 002°58'0 0.0
2017-Dec-11 20:28N 58°60' W 002°58'0 0.0
2017-Dec-11 19:58N 58°60' W 002°58'0 0.0
2017-Dec-11 19:28N 58°60' W 002°58'0 0.0
2017-Dec-11 18:58N 58°60' W 002°58'0 0.0
2017-Dec-11 18:28N 58°60' W 002°58'0 0.0
2017-Dec-11 17:58N 58°60' W 002°58'0 0.0
2017-Dec-11 17:28N 58°60' W 002°58'0 0.0
2017-Dec-11 16:58N 58°60' W 002°58'0 0.0
2017-Dec-11 16:28N 58°60' W 002°58'0 0.0
2017-Dec-11 15:58N 58°60' W 002°58'0 0.0
2017-Dec-11 15:28N 58°60' W 002°58'0 0.0
2017-Dec-11 14:58N 58°60' W 002°58'0 0.0
2017-Dec-11 14:28N 58°60' W 002°58'0 0.0
2017-Dec-11 13:58N 58°60' W 002°58'0 0.0
2017-Dec-11 13:28N 58°60' W 002°58'0 0.0
2017-Dec-11 12:58N 58°60' W 002°58'0 0.0
2017-Dec-11 12:28N 58°60' W 002°58'0 0.0
2017-Dec-11 11:58N 58°60' W 002°58'0 0.0
2017-Dec-11 11:28N 58°60' W 002°58'0 0.0
2017-Dec-11 10:58N 58°60' W 002°58'0 0.0
2017-Dec-11 10:28N 58°60' W 002°58'0 0.0
2017-Dec-11 09:58N 58°60' W 002°58'0 0.0
2017-Dec-11 09:28N 58°60' W 002°58'0 0.0
2017-Dec-11 08:58N 58°60' W 002°58'0 0.0
2017-Dec-11 08:28N 58°60' W 002°58'0 0.0
2017-Dec-11 07:58N 58°60' W 002°58'0 0.0
2017-Dec-11 07:28N 58°60' W 002°58'0 0.0
2017-Dec-11 06:58N 58°60' W 002°58'0 0.0
2017-Dec-11 06:28N 58°60' W 002°58'0 0.0
2017-Dec-11 05:58N 58°60' W 002°58'0 0.0
2017-Dec-11 05:28N 58°60' W 002°58'0 0.0
2017-Dec-11 04:58N 58°60' W 002°58'0 0.0
2017-Dec-11 04:28N 58°60' W 002°58'0 0.0
2017-Dec-11 03:58N 58°60' W 002°58'0 0.0
2017-Dec-11 03:28N 58°60' W 002°58'0 0.0
2017-Dec-11 02:58N 58°60' W 002°58'0 0.0
2017-Dec-11 02:28N 58°60' W 002°58'0 0.0
2017-Dec-11 01:58N 58°60' W 002°58'0 0.3
2017-Dec-11 01:31N 58°60' W 002°58'510.7
2017-Dec-11 01:00N 59°00' W 002°48'714.1
2017-Dec-11 00:30N 58°56' W 002°37'6615.3
2017-Dec-10 20:10N 57°53' W 001°54'514.7
2017-Dec-10 19:50N 57°49' W 001°51'514.4
2017-Dec-10 19:30N 57°44' W 001°49'714.4
2017-Dec-10 19:00N 57°37' W 001°45'714.0
2017-Dec-10 18:31N 57°31' W 001°42'713.6
2017-Dec-10 18:00N 57°24' W 001°45'714.5
2017-Dec-10 17:30N 57°18' W 001°52'715.0
2017-Dec-10 17:01N 57°11' W 001°59'4 8.7
2017-Dec-10 16:30N 57°09' W 002°05'0 0.0
2017-Dec-10 16:00N 57°09' W 002°05'0 0.0
2017-Dec-10 15:30N 57°09' W 002°05'0 0.0
2017-Dec-10 15:00N 57°09' W 002°05'0 0.0
2017-Dec-10 14:29N 57°09' W 002°05'0 0.0
2017-Dec-10 14:00N 57°09' W 002°05'0 0.0
2017-Dec-10 13:30N 57°09' W 002°05'0 0.0
2017-Dec-10 13:00N 57°09' W 002°05'0 0.0
2017-Dec-10 12:29N 57°09' W 002°05'0 0.0
2017-Dec-10 11:59N 57°09' W 002°05'0 0.0
2017-Dec-10 11:30N 57°09' W 002°05'0 0.0
2017-Dec-10 11:00N 57°09' W 002°05'0 0.0
2017-Dec-10 10:30N 57°09' W 002°05'0 0.0
2017-Dec-10 10:00N 57°09' W 002°05'0 0.0
2017-Dec-10 09:29N 57°09' W 002°05'0 0.0
2017-Dec-10 08:59N 57°09' W 002°05'0 0.0
2017-Dec-10 08:29N 57°09' W 002°05'0 0.0
2017-Dec-10 07:59N 57°09' W 002°05'1 1.8
2017-Dec-10 07:31N 57°09' W 002°04'612.4
2017-Dec-10 07:01N 57°13' W 001°55'612.9
2017-Dec-10 06:31N 57°18' W 001°49'612.9
2017-Dec-10 06:00N 57°24' W 001°43'612.9
2017-Dec-10 05:30N 57°30' W 001°38'713.3
2017-Dec-10 05:01N 57°37' W 001°36'612.6
2017-Dec-10 04:30N 57°43' W 001°35'712.6
2017-Dec-10 03:55N 57°50' W 001°34'  

Dump ship's entire track history